createdAt,value
2023-05-17T00:00:02.976Z,5.40
2023-05-17T00:01:03.615Z,5.40
2023-05-17T00:02:02.752Z,5.40
2023-05-17T00:03:03.421Z,5.40
2023-05-17T00:04:03.550Z,5.40
2023-05-17T00:05:03.298Z,5.30
2023-05-17T00:06:02.772Z,5.30
2023-05-17T00:07:03.428Z,5.30
2023-05-17T00:08:03.165Z,5.30
2023-05-17T00:09:02.671Z,5.30
2023-05-17T00:10:03.070Z,5.30
2023-05-17T00:11:03.285Z,5.30
2023-05-17T00:12:02.892Z,5.30
2023-05-17T00:13:02.899Z,5.30
2023-05-17T00:14:03.475Z,5.30
2023-05-17T00:15:03.114Z,5.30
2023-05-17T00:16:03.432Z,5.30
2023-05-17T00:17:03.088Z,5.20
2023-05-17T00:18:02.680Z,5.20
2023-05-17T00:19:03.236Z,5.20
2023-05-17T00:20:03.530Z,5.20
2023-05-17T00:21:03.514Z,5.20
2023-05-17T00:22:03.393Z,5.20
2023-05-17T00:23:02.984Z,5.20
2023-05-17T00:24:02.633Z,5.20
2023-05-17T00:25:03.409Z,5.20
2023-05-17T00:26:03.057Z,5.20
2023-05-17T00:27:02.798Z,5.20
2023-05-17T00:28:03.356Z,5.20
2023-05-17T00:29:03.368Z,5.10
2023-05-17T00:30:02.956Z,5.10
2023-05-17T00:31:03.598Z,5.10
2023-05-17T00:32:03.261Z,5.10
2023-05-17T00:33:03.330Z,5.10
2023-05-17T00:34:03.119Z,5.10
2023-05-17T00:35:02.692Z,5.10
2023-05-17T00:36:03.505Z,5.10
2023-05-17T00:37:02.986Z,5.10
2023-05-17T00:38:03.664Z,5.10
2023-05-17T00:39:03.177Z,5.10
2023-05-17T00:40:02.608Z,5.00
2023-05-17T00:41:03.293Z,5.00
2023-05-17T00:42:02.912Z,5.00
2023-05-17T00:43:03.594Z,5.00
2023-05-17T00:44:03.366Z,5.00
2023-05-17T00:45:02.847Z,5.00
2023-05-17T00:46:03.470Z,5.00
2023-05-17T00:47:03.077Z,5.00
2023-05-17T00:48:03.624Z,4.90
2023-05-17T00:49:03.455Z,4.90
2023-05-17T00:50:03.098Z,4.90
2023-05-17T00:51:02.777Z,4.90
2023-05-17T00:52:03.202Z,4.90
2023-05-17T00:53:02.898Z,4.90
2023-05-17T00:54:03.542Z,4.90
2023-05-17T00:55:03.120Z,4.90
2023-05-17T00:56:02.692Z,4.80
2023-05-17T00:57:03.357Z,4.80
2023-05-17T00:58:02.943Z,4.80
2023-05-17T00:59:03.396Z,4.80
2023-05-17T01:00:02.974Z,4.80
2023-05-17T01:01:03.357Z,4.80
2023-05-17T01:02:02.606Z,4.80
2023-05-17T01:03:03.293Z,4.80
2023-05-17T01:04:02.756Z,4.80
2023-05-17T01:05:02.778Z,4.80
2023-05-17T01:06:03.364Z,4.70
2023-05-17T01:07:03.101Z,4.70
2023-05-17T01:08:03.410Z,4.70
2023-05-17T01:09:02.916Z,4.70
2023-05-17T01:10:03.585Z,4.70
2023-05-17T01:11:03.343Z,4.70
2023-05-17T01:12:02.921Z,4.70
2023-05-17T01:13:03.386Z,4.70
2023-05-17T01:14:03.313Z,4.70
2023-05-17T01:15:03.040Z,4.70
2023-05-17T01:16:03.559Z,4.70
2023-05-17T01:17:03.227Z,4.70
2023-05-17T01:18:02.908Z,4.70
2023-05-17T01:19:03.458Z,4.70
2023-05-17T01:20:02.842Z,4.70
2023-05-17T01:21:02.948Z,4.70
2023-05-17T01:22:03.385Z,4.70
2023-05-17T01:23:03.142Z,4.70
2023-05-17T01:24:03.631Z,4.70
2023-05-17T01:25:03.304Z,4.60
2023-05-17T01:26:03.391Z,4.70
2023-05-17T01:27:02.952Z,4.70
2023-05-17T01:28:03.480Z,4.60
2023-05-17T01:29:03.125Z,4.60
2023-05-17T01:30:03.620Z,4.60
2023-05-17T01:31:03.150Z,4.60
2023-05-17T01:32:03.472Z,4.60
2023-05-17T01:33:03.333Z,4.60
2023-05-17T01:34:03.144Z,4.60
2023-05-17T01:35:02.765Z,4.60
2023-05-17T01:36:03.330Z,4.60
2023-05-17T01:37:02.900Z,4.60
2023-05-17T01:38:03.530Z,4.60
2023-05-17T01:39:03.072Z,4.50
2023-05-17T01:40:03.408Z,4.50
2023-05-17T01:41:03.473Z,4.50
2023-05-17T01:42:03.217Z,4.50
2023-05-17T01:43:02.771Z,4.50
2023-05-17T01:44:03.324Z,4.50
2023-05-17T01:45:03.444Z,4.50
2023-05-17T01:46:02.995Z,4.50
2023-05-17T01:47:02.821Z,4.40
2023-05-17T01:48:03.483Z,4.40
2023-05-17T01:49:02.787Z,4.40
2023-05-17T01:50:03.305Z,4.40
2023-05-17T01:51:02.746Z,4.40
2023-05-17T01:52:03.402Z,4.40
2023-05-17T01:53:03.039Z,4.40
2023-05-17T01:54:02.771Z,4.40
2023-05-17T01:55:03.262Z,4.40
2023-05-17T01:56:02.950Z,4.40
2023-05-17T01:57:03.563Z,4.40
2023-05-17T01:58:03.465Z,4.30
2023-05-17T01:59:03.173Z,4.30
2023-05-17T02:00:02.832Z,4.30
2023-05-17T02:01:03.383Z,4.30
2023-05-17T02:02:03.361Z,4.30
2023-05-17T02:03:02.980Z,4.30
2023-05-17T02:04:03.722Z,4.30
2023-05-17T02:05:03.381Z,4.30
2023-05-17T02:06:03.083Z,4.30
2023-05-17T02:07:02.618Z,4.30
2023-05-17T02:08:03.193Z,4.30
2023-05-17T02:09:02.945Z,4.30
2023-05-17T02:10:03.334Z,4.30
2023-05-17T02:11:03.454Z,4.30
2023-05-17T02:12:03.226Z,4.20
2023-05-17T02:13:02.812Z,4.20
2023-05-17T02:14:03.388Z,4.20
2023-05-17T02:15:03.620Z,4.20
2023-05-17T02:16:03.189Z,4.20
2023-05-17T02:17:02.782Z,4.20
2023-05-17T02:18:03.516Z,4.20
2023-05-17T02:19:03.271Z,4.20
2023-05-17T02:20:03.011Z,4.20
2023-05-17T02:21:03.486Z,4.20
2023-05-17T02:22:03.127Z,4.20
2023-05-17T02:23:03.656Z,4.10
2023-05-17T02:24:03.450Z,4.10
2023-05-17T02:25:03.071Z,4.10
2023-05-17T02:26:02.780Z,4.10
2023-05-17T02:27:03.300Z,4.10
2023-05-17T02:28:02.899Z,4.10
2023-05-17T02:29:02.931Z,4.10
2023-05-17T02:30:03.534Z,4.00
2023-05-17T02:31:03.570Z,4.00
2023-05-17T02:32:03.167Z,4.00
2023-05-17T02:33:03.594Z,4.00
2023-05-17T02:34:03.356Z,4.00
2023-05-17T02:35:03.491Z,4.00
2023-05-17T02:36:02.971Z,4.00
2023-05-17T02:37:03.586Z,4.00
2023-05-17T02:38:03.208Z,4.00
2023-05-17T02:39:03.416Z,4.00
2023-05-17T02:40:03.480Z,4.00
2023-05-17T02:41:02.970Z,4.00
2023-05-17T02:42:03.431Z,3.90
2023-05-17T02:43:03.091Z,3.90
2023-05-17T02:44:02.628Z,3.90
2023-05-17T02:45:03.228Z,3.90
2023-05-17T02:46:03.586Z,3.90
2023-05-17T02:47:03.505Z,3.90
2023-05-17T02:48:03.115Z,3.90
2023-05-17T02:49:03.664Z,3.90
2023-05-17T02:50:03.188Z,3.80
2023-05-17T02:51:02.980Z,3.80
2023-05-17T02:52:03.590Z,3.80
2023-05-17T02:53:03.186Z,3.80
2023-05-17T02:54:02.727Z,3.80
2023-05-17T02:55:03.287Z,3.80
2023-05-17T02:56:02.826Z,3.80
2023-05-17T02:57:03.259Z,3.70
2023-05-17T02:58:02.876Z,3.70
2023-05-17T02:59:03.450Z,3.70
2023-05-17T03:00:03.061Z,3.70
2023-05-17T03:01:03.467Z,3.70
2023-05-17T03:02:03.130Z,3.70
2023-05-17T03:03:03.518Z,3.70
2023-05-17T03:04:02.962Z,3.70
2023-05-17T03:05:02.847Z,3.70
2023-05-17T03:06:03.412Z,3.70
2023-05-17T03:07:05.813Z,3.70
2023-05-17T03:08:03.382Z,3.70
2023-05-17T03:09:03.052Z,3.60
2023-05-17T03:10:03.580Z,3.60
2023-05-17T03:11:03.087Z,3.70
2023-05-17T03:12:02.666Z,3.60
2023-05-17T03:13:03.280Z,3.60
2023-05-17T03:14:02.951Z,3.60
2023-05-17T03:15:02.704Z,3.60
2023-05-17T03:16:03.238Z,3.60
2023-05-17T03:17:03.023Z,3.60
2023-05-17T03:18:02.721Z,3.60
2023-05-17T03:19:03.664Z,3.60
2023-05-17T03:20:03.435Z,3.60
2023-05-17T03:21:02.979Z,3.60
2023-05-17T03:22:03.019Z,3.60
2023-05-17T03:23:02.714Z,3.60
2023-05-17T03:24:03.584Z,3.60
2023-05-17T03:25:03.241Z,3.60
2023-05-17T03:26:02.820Z,3.60
2023-05-17T03:27:03.674Z,3.60
2023-05-17T03:28:03.681Z,3.60
2023-05-17T03:29:03.312Z,3.60
2023-05-17T03:30:02.821Z,3.60
2023-05-17T03:31:03.447Z,3.60
2023-05-17T03:32:02.802Z,3.60
2023-05-17T03:33:03.385Z,3.50
2023-05-17T03:34:03.234Z,3.60
2023-05-17T03:35:03.053Z,3.50
2023-05-17T03:36:03.513Z,3.50
2023-05-17T03:37:03.085Z,3.60
2023-05-17T03:38:03.005Z,3.50
2023-05-17T03:39:03.294Z,3.60
2023-05-17T03:40:03.635Z,3.60
2023-05-17T03:41:02.756Z,3.50
2023-05-17T03:42:03.150Z,3.50
2023-05-17T03:43:02.860Z,3.60
2023-05-17T03:44:03.514Z,3.60
2023-05-17T03:45:03.071Z,3.50
2023-05-17T03:46:02.765Z,3.50
2023-05-17T03:47:03.248Z,3.50
2023-05-17T03:48:02.982Z,3.50
2023-05-17T03:49:03.512Z,3.50
2023-05-17T03:50:03.159Z,3.50
2023-05-17T03:51:02.856Z,3.50
2023-05-17T03:52:03.515Z,3.50
2023-05-17T03:53:03.060Z,3.50
2023-05-17T03:54:03.544Z,3.50
2023-05-17T03:55:03.067Z,3.50
2023-05-17T03:56:02.659Z,3.50
2023-05-17T03:57:03.299Z,3.50
2023-05-17T03:58:03.621Z,3.50
2023-05-17T03:59:03.136Z,3.60
2023-05-17T04:00:02.937Z,3.60
2023-05-17T04:01:02.676Z,3.60
2023-05-17T04:02:03.195Z,3.60
2023-05-17T04:03:02.843Z,3.60
2023-05-17T04:04:03.458Z,3.60
2023-05-17T04:05:02.830Z,3.60
2023-05-17T04:06:03.403Z,3.70
2023-05-17T04:07:03.629Z,3.70
2023-05-17T04:08:03.628Z,3.70
2023-05-17T04:09:03.235Z,3.80
2023-05-17T04:10:02.752Z,3.80
2023-05-17T04:11:03.218Z,3.90
2023-05-17T04:12:03.577Z,4.00
2023-05-17T04:13:03.208Z,4.10
2023-05-17T04:14:03.604Z,4.20
2023-05-17T04:15:03.421Z,4.20
2023-05-17T04:16:03.061Z,4.30
2023-05-17T04:17:03.616Z,4.40
2023-05-17T04:18:03.312Z,4.50
2023-05-17T04:19:02.883Z,4.50
2023-05-17T04:20:02.924Z,4.60
2023-05-17T04:21:03.555Z,4.70
2023-05-17T04:22:03.237Z,4.80
2023-05-17T04:23:02.750Z,4.80
2023-05-17T04:24:03.538Z,4.90
2023-05-17T04:25:03.983Z,4.90
2023-05-17T04:26:02.672Z,5.00
2023-05-17T04:27:03.656Z,5.00
2023-05-17T04:28:02.855Z,5.00
2023-05-17T04:29:03.334Z,5.00
2023-05-17T04:30:02.917Z,5.00
2023-05-17T04:31:03.276Z,5.00
2023-05-17T04:32:02.753Z,5.10
2023-05-17T04:33:03.485Z,5.10
2023-05-17T04:34:03.086Z,5.20
2023-05-17T04:35:02.813Z,5.30
2023-05-17T04:36:03.474Z,5.40
2023-05-17T04:37:02.672Z,5.50
2023-05-17T04:38:03.315Z,5.60
2023-05-17T04:39:03.578Z,5.70
2023-05-17T04:40:03.145Z,5.80
2023-05-17T04:41:02.794Z,5.80
2023-05-17T04:42:03.467Z,5.90
2023-05-17T04:43:03.559Z,6.00
2023-05-17T04:44:02.888Z,6.10
2023-05-17T04:45:03.387Z,6.10
2023-05-17T04:46:02.809Z,6.10
2023-05-17T04:47:03.504Z,6.20
2023-05-17T04:48:03.080Z,6.30
2023-05-17T04:49:02.771Z,6.30
2023-05-17T04:50:03.605Z,6.40
2023-05-17T04:51:03.093Z,6.40
2023-05-17T04:52:04.694Z,6.50
2023-05-17T04:53:03.541Z,6.70
2023-05-17T04:54:03.081Z,6.80
2023-05-17T04:55:02.753Z,7.00
2023-05-17T04:56:03.427Z,7.10
2023-05-17T04:57:03.225Z,7.30
2023-05-17T04:58:02.826Z,7.40
2023-05-17T04:59:03.294Z,7.50
2023-05-17T05:00:02.887Z,7.60
2023-05-17T05:01:03.513Z,7.60
2023-05-17T05:02:02.636Z,7.60
2023-05-17T05:03:03.348Z,7.70
2023-05-17T05:04:03.206Z,7.70
2023-05-17T05:05:03.076Z,7.80
2023-05-17T05:06:03.592Z,7.80
2023-05-17T05:07:03.481Z,7.90
2023-05-17T05:08:03.042Z,8.00
2023-05-17T05:09:02.662Z,8.10
2023-05-17T05:10:03.214Z,8.20
2023-05-17T05:11:03.598Z,8.20
2023-05-17T05:12:03.325Z,8.30
2023-05-17T05:13:03.520Z,8.30
2023-05-17T05:14:03.278Z,8.30
2023-05-17T05:15:02.654Z,8.20
2023-05-17T05:16:03.200Z,8.20
2023-05-17T05:17:02.960Z,8.20
2023-05-17T05:18:02.657Z,8.10
2023-05-17T05:19:02.898Z,8.00
2023-05-17T05:20:03.117Z,8.00
2023-05-17T05:21:04.653Z,8.00
2023-05-17T05:22:02.688Z,8.00
2023-05-17T05:23:03.308Z,8.00
2023-05-17T05:24:03.653Z,8.00
2023-05-17T05:25:03.267Z,8.10
2023-05-17T05:26:02.990Z,8.10
2023-05-17T05:27:04.982Z,8.20
2023-05-17T05:28:03.507Z,8.30
2023-05-17T05:29:03.044Z,8.30
2023-05-17T05:30:02.666Z,8.40
2023-05-17T05:31:03.243Z,8.40
2023-05-17T05:32:02.779Z,8.50
2023-05-17T05:33:03.507Z,8.50
2023-05-17T05:34:02.901Z,8.60
2023-05-17T05:35:03.594Z,8.60
2023-05-17T05:36:03.189Z,8.60
2023-05-17T05:37:02.826Z,8.60
2023-05-17T05:38:03.424Z,8.70
2023-05-17T05:39:03.632Z,8.70
2023-05-17T05:40:03.233Z,8.70
2023-05-17T05:41:02.669Z,8.70
2023-05-17T05:42:03.123Z,8.70
2023-05-17T05:43:02.767Z,8.70
2023-05-17T05:44:03.356Z,8.70
2023-05-17T05:45:02.812Z,8.60
2023-05-17T05:46:03.351Z,8.60
2023-05-17T05:47:02.824Z,8.60
2023-05-17T05:48:03.356Z,8.60
2023-05-17T05:49:02.884Z,8.60
2023-05-17T05:50:03.493Z,8.60
2023-05-17T05:51:03.110Z,8.60
2023-05-17T05:52:03.151Z,8.60
2023-05-17T05:53:14.763Z,8.60
2023-05-17T05:54:02.735Z,8.70
2023-05-17T05:55:03.266Z,8.70
2023-05-17T05:56:02.716Z,8.80
2023-05-17T05:57:03.241Z,8.80
2023-05-17T05:58:02.933Z,8.90
2023-05-17T05:59:03.538Z,9.10
2023-05-17T06:00:03.382Z,9.20
2023-05-17T06:01:05.447Z,9.30
2023-05-17T06:02:02.748Z,9.40
2023-05-17T06:03:03.423Z,9.40
2023-05-17T06:04:03.131Z,9.40
2023-05-17T06:05:03.535Z,9.50
2023-05-17T06:06:02.858Z,9.50
2023-05-17T06:07:03.611Z,9.60
2023-05-17T06:08:02.926Z,9.60
2023-05-17T06:09:03.457Z,9.60
2023-05-17T06:10:03.060Z,9.70
2023-05-17T06:11:03.547Z,9.70
2023-05-17T06:12:03.074Z,9.70
2023-05-17T06:13:02.811Z,9.70
2023-05-17T06:14:03.577Z,9.60
2023-05-17T06:15:02.887Z,9.60
2023-05-17T06:16:04.449Z,9.70
2023-05-17T06:17:03.484Z,9.70
2023-05-17T06:18:03.082Z,9.60
2023-05-17T06:19:02.938Z,9.60
2023-05-17T06:20:02.659Z,9.60
2023-05-17T06:21:03.246Z,9.60
2023-05-17T06:22:02.839Z,9.60
2023-05-17T06:23:03.394Z,9.60
2023-05-17T06:24:04.845Z,9.60
2023-05-17T06:25:03.144Z,9.60
2023-05-17T06:26:02.820Z,9.60
2023-05-17T06:27:03.411Z,9.60
2023-05-17T06:28:02.687Z,9.70
2023-05-17T06:29:03.170Z,9.70
2023-05-17T06:30:04.903Z,9.70
2023-05-17T06:31:02.701Z,9.70
2023-05-17T06:32:03.327Z,9.80
2023-05-17T06:33:03.000Z,9.90
2023-05-17T06:34:02.829Z,9.90
2023-05-17T06:35:03.442Z,10.10
2023-05-17T06:37:02.663Z,10.40
2023-05-17T06:38:03.447Z,10.50
2023-05-17T06:39:02.712Z,10.60
2023-05-17T06:40:09.878Z,10.80
2023-05-17T06:41:03.589Z,10.90
2023-05-17T06:42:02.704Z,11.00
2023-05-17T06:43:03.229Z,11.00
2023-05-17T06:44:02.910Z,11.10
2023-05-17T06:45:03.392Z,11.10
2023-05-17T06:46:02.944Z,11.20
2023-05-17T06:47:03.485Z,11.10
2023-05-17T06:48:03.344Z,11.20
2023-05-17T06:49:03.375Z,11.10
2023-05-17T06:50:03.301Z,11.10
2023-05-17T06:51:02.992Z,11.20
2023-05-17T06:52:03.568Z,11.10
2023-05-17T06:53:02.686Z,11.10
2023-05-17T06:54:03.230Z,11.10
2023-05-17T06:55:02.976Z,11.10
2023-05-17T06:56:03.606Z,11.10
2023-05-17T06:57:03.181Z,11.10
2023-05-17T06:58:02.740Z,11.10
2023-05-17T06:59:03.296Z,11.10
2023-05-17T07:00:02.876Z,11.10
2023-05-17T07:01:03.378Z,11.10
2023-05-17T07:02:03.128Z,11.00
2023-05-17T07:03:03.087Z,11.00
2023-05-17T07:04:03.032Z,11.00
2023-05-17T07:05:03.169Z,11.00
2023-05-17T07:06:02.981Z,11.00
2023-05-17T07:07:02.622Z,11.00
2023-05-17T07:08:03.176Z,11.00
2023-05-17T07:09:02.827Z,11.00
2023-05-17T07:10:03.334Z,11.00
2023-05-17T07:11:02.938Z,11.00
2023-05-17T07:12:03.388Z,11.00
2023-05-17T07:13:03.150Z,11.00
2023-05-17T07:14:03.652Z,11.00
2023-05-17T07:15:03.166Z,11.00
2023-05-17T07:16:02.919Z,11.10
2023-05-17T07:17:03.609Z,11.10
2023-05-17T07:18:03.438Z,11.10
2023-05-17T07:19:03.030Z,11.10
2023-05-17T07:20:03.041Z,11.10
2023-05-17T07:21:03.819Z,11.10
2023-05-17T07:22:03.176Z,11.10
2023-05-17T07:23:02.726Z,11.00
2023-05-17T07:24:03.206Z,11.00
2023-05-17T07:25:02.852Z,11.10
2023-05-17T07:26:03.510Z,11.00
2023-05-17T07:27:03.017Z,11.00
2023-05-17T07:28:02.669Z,11.00
2023-05-17T07:29:03.254Z,11.00
2023-05-17T07:30:02.780Z,11.00
2023-05-17T07:31:03.348Z,11.00
2023-05-17T07:32:03.251Z,11.00
2023-05-17T07:33:02.679Z,11.00
2023-05-17T07:34:02.724Z,11.00
2023-05-17T07:35:03.591Z,11.00
2023-05-17T07:36:02.811Z,11.00
2023-05-17T07:37:03.259Z,11.00
2023-05-17T07:38:02.809Z,11.00
2023-05-17T07:39:03.400Z,11.00
2023-05-17T07:40:03.131Z,11.00
2023-05-17T07:41:02.870Z,11.00
2023-05-17T07:42:04.625Z,11.00
2023-05-17T07:43:02.749Z,11.00
2023-05-17T07:44:03.530Z,11.00
2023-05-17T07:45:02.786Z,11.00
2023-05-17T07:46:03.450Z,10.90
2023-05-17T07:47:03.133Z,10.90
2023-05-17T07:48:02.825Z,10.90
2023-05-17T07:49:03.409Z,10.90
2023-05-17T07:50:03.233Z,10.90
2023-05-17T07:51:02.692Z,10.90
2023-05-17T07:52:03.373Z,10.90
2023-05-17T07:53:03.308Z,10.90
2023-05-17T07:54:02.747Z,10.90
2023-05-17T07:55:03.360Z,10.90
2023-05-17T07:56:02.781Z,10.90
2023-05-17T07:57:03.460Z,10.80
2023-05-17T07:58:04.259Z,10.80
2023-05-17T07:59:03.224Z,10.80
2023-05-17T08:00:02.992Z,10.80
2023-05-17T08:01:03.612Z,10.80
2023-05-17T08:02:03.103Z,10.80
2023-05-17T08:03:03.644Z,10.80
2023-05-17T08:04:02.964Z,10.80
2023-05-17T08:05:03.820Z,10.70
2023-05-17T08:06:03.339Z,10.70
2023-05-17T08:07:02.782Z,10.70
2023-05-17T08:08:03.473Z,10.70
2023-05-17T08:09:03.144Z,10.70
2023-05-17T08:10:02.691Z,10.70
2023-05-17T08:11:03.173Z,10.60
2023-05-17T08:12:02.832Z,10.60
2023-05-17T08:13:03.535Z,10.70
2023-05-17T08:14:03.036Z,10.60
2023-05-17T08:15:02.631Z,10.60
2023-05-17T08:16:12.451Z,10.60
2023-05-17T08:17:02.782Z,10.60
2023-05-17T08:18:04.651Z,10.70
2023-05-17T08:19:03.323Z,10.70
2023-05-17T08:20:03.089Z,10.70
2023-05-17T08:21:02.633Z,10.70
2023-05-17T08:22:03.253Z,10.70
2023-05-17T08:23:02.742Z,10.80
2023-05-17T08:24:04.139Z,10.80
2023-05-17T08:25:03.294Z,10.80
2023-05-17T08:26:02.923Z,10.80
2023-05-17T08:27:03.542Z,10.90
2023-05-17T08:28:03.309Z,10.90
2023-05-17T08:29:02.877Z,10.90
2023-05-17T08:30:04.141Z,11.00
2023-05-17T08:31:04.023Z,11.00
2023-05-17T08:32:03.272Z,11.00
2023-05-17T08:33:02.974Z,11.10
2023-05-17T08:34:03.495Z,11.10
2023-05-17T08:35:02.987Z,11.10
2023-05-17T08:36:03.440Z,11.20
2023-05-17T08:37:03.090Z,11.20
2023-05-17T08:38:02.772Z,11.20
2023-05-17T08:39:03.313Z,11.20
2023-05-17T08:40:02.862Z,11.20
2023-05-17T08:41:03.521Z,11.30
2023-05-17T08:42:02.823Z,11.20
2023-05-17T08:43:03.411Z,11.30
2023-05-17T08:44:02.787Z,11.30
2023-05-17T08:45:03.355Z,11.20
2023-05-17T08:46:02.725Z,11.20
2023-05-17T08:47:03.335Z,11.10
2023-05-17T08:48:03.085Z,11.10
2023-05-17T08:49:02.949Z,11.10
2023-05-17T08:50:03.627Z,11.10
2023-05-17T08:51:03.300Z,11.00
2023-05-17T08:52:02.788Z,11.00
2023-05-17T08:53:03.356Z,11.00
2023-05-17T08:54:02.975Z,11.00
2023-05-17T08:55:03.575Z,11.00
2023-05-17T08:56:02.842Z,10.90
2023-05-17T08:57:02.824Z,10.90
2023-05-17T08:58:03.383Z,10.90
2023-05-17T08:59:03.016Z,10.90
2023-05-17T09:00:03.510Z,10.90
2023-05-17T09:01:03.131Z,10.90
2023-05-17T09:02:02.744Z,10.90
2023-05-17T09:03:03.421Z,10.80
2023-05-17T09:04:03.174Z,10.80
2023-05-17T09:05:03.050Z,10.80
2023-05-17T09:06:03.639Z,10.90
2023-05-17T09:07:03.230Z,10.80
2023-05-17T09:08:02.747Z,10.80
2023-05-17T09:09:03.408Z,10.80
2023-05-17T09:10:02.967Z,10.80
2023-05-17T09:11:03.646Z,10.80
2023-05-17T09:12:02.814Z,10.80
2023-05-17T09:13:03.327Z,10.80
2023-05-17T09:14:02.991Z,10.80
2023-05-17T09:15:03.606Z,10.80
2023-05-17T09:16:03.635Z,10.80
2023-05-17T09:17:03.340Z,10.80
2023-05-17T09:18:03.009Z,10.80
2023-05-17T09:19:02.934Z,10.80
2023-05-17T09:20:02.861Z,10.80
2023-05-17T09:21:03.535Z,10.80
2023-05-17T09:22:03.038Z,10.80
2023-05-17T09:23:03.167Z,10.80
2023-05-17T09:24:06.818Z,10.70
2023-05-17T09:25:03.459Z,10.70
2023-05-17T09:26:03.037Z,10.70
2023-05-17T09:27:02.664Z,10.70
2023-05-17T09:28:02.764Z,10.70
2023-05-17T09:29:03.363Z,10.70
2023-05-17T09:30:02.862Z,10.70
2023-05-17T09:31:03.617Z,10.70
2023-05-17T09:32:02.794Z,10.80
2023-05-17T09:33:03.376Z,10.80
2023-05-17T09:34:02.994Z,10.80
2023-05-17T09:35:03.520Z,10.80
2023-05-17T09:36:03.075Z,10.80
2023-05-17T09:37:02.779Z,10.90
2023-05-17T09:38:03.019Z,10.90
2023-05-17T09:39:02.719Z,10.90
2023-05-17T09:40:03.221Z,10.90
2023-05-17T09:41:02.796Z,10.90
2023-05-17T09:42:03.225Z,11.00
2023-05-17T09:43:02.623Z,11.00
2023-05-17T09:44:03.394Z,11.00
2023-05-17T09:45:03.655Z,11.00
2023-05-17T09:46:03.374Z,11.00
2023-05-17T09:47:02.868Z,11.00
2023-05-17T09:48:03.394Z,11.10
2023-05-17T09:49:03.335Z,11.10
2023-05-17T09:50:03.556Z,11.10
2023-05-17T09:51:02.754Z,11.10
2023-05-17T09:52:03.416Z,11.20
2023-05-17T09:53:03.050Z,11.20
2023-05-17T09:54:03.607Z,11.20
2023-05-17T09:55:03.355Z,11.30
2023-05-17T09:56:03.060Z,11.30
2023-05-17T09:57:03.619Z,11.30
2023-05-17T09:58:03.381Z,11.40
2023-05-17T09:59:03.028Z,11.40
2023-05-17T10:00:03.654Z,11.50
2023-05-17T10:01:03.270Z,11.50
2023-05-17T10:02:03.116Z,11.50
2023-05-17T10:03:02.831Z,11.60
2023-05-17T10:04:03.546Z,11.60
2023-05-17T10:05:03.116Z,11.60
2023-05-17T10:06:02.832Z,11.70
2023-05-17T10:07:03.368Z,11.70
2023-05-17T10:08:02.950Z,11.70
2023-05-17T10:09:03.595Z,11.80
2023-05-17T10:10:02.921Z,11.80
2023-05-17T10:11:04.168Z,11.80
2023-05-17T10:12:03.199Z,11.80
2023-05-17T10:13:02.761Z,11.80
2023-05-17T10:14:03.386Z,11.80
2023-05-17T10:15:03.082Z,11.80
2023-05-17T10:16:02.980Z,11.80
2023-05-17T10:17:03.692Z,11.80
2023-05-17T10:18:03.496Z,11.80
2023-05-17T10:19:03.385Z,11.80
2023-05-17T10:20:03.107Z,11.80
2023-05-17T10:21:02.626Z,11.80
2023-05-17T10:22:18.689Z,11.80
2023-05-17T10:23:03.666Z,11.70
2023-05-17T10:24:03.206Z,11.70
2023-05-17T10:25:02.816Z,11.70
2023-05-17T10:26:03.476Z,11.70
2023-05-17T10:27:03.264Z,11.70
2023-05-17T10:28:02.851Z,11.70
2023-05-17T10:29:03.321Z,11.70
2023-05-17T10:30:02.753Z,11.60
2023-05-17T10:31:03.309Z,11.60
2023-05-17T10:32:02.819Z,11.60
2023-05-17T10:33:03.474Z,11.60
2023-05-17T10:34:03.201Z,11.50
2023-05-17T10:35:11.020Z,11.50
2023-05-17T10:36:03.037Z,11.50
2023-05-17T10:37:03.554Z,11.50
2023-05-17T10:38:03.136Z,11.40
2023-05-17T10:39:02.842Z,11.50
2023-05-17T10:40:02.985Z,11.50
2023-05-17T10:41:03.581Z,11.50
2023-05-17T10:42:14.132Z,11.50
2023-05-17T10:43:03.293Z,11.50
2023-05-17T10:44:02.993Z,11.60
2023-05-17T10:45:03.452Z,11.60
2023-05-17T10:46:03.094Z,11.60
2023-05-17T10:47:03.612Z,11.60
2023-05-17T10:48:03.396Z,11.70
2023-05-17T10:49:02.977Z,11.70
2023-05-17T10:50:03.206Z,11.80
2023-05-17T10:51:02.640Z,11.80
2023-05-17T10:52:02.968Z,11.90
2023-05-17T10:53:03.461Z,11.90
2023-05-17T10:54:02.884Z,11.90
2023-05-17T10:55:03.461Z,12.00
2023-05-17T10:56:03.088Z,12.00
2023-05-17T10:57:02.738Z,12.10
2023-05-17T10:58:02.861Z,12.10
2023-05-17T10:59:03.564Z,12.20
2023-05-17T11:00:03.204Z,12.20
2023-05-17T11:01:02.757Z,12.30
2023-05-17T11:02:03.548Z,12.30
2023-05-17T11:03:03.353Z,12.40
2023-05-17T11:04:03.043Z,12.50
2023-05-17T11:05:02.728Z,12.60
2023-05-17T11:06:03.619Z,12.70
2023-05-17T11:07:04.625Z,12.70
2023-05-17T11:08:03.004Z,12.80
2023-05-17T11:09:03.593Z,12.80
2023-05-17T11:10:03.209Z,12.90
2023-05-17T11:11:02.691Z,12.90
2023-05-17T11:12:03.297Z,12.90
2023-05-17T11:13:03.126Z,13.00
2023-05-17T11:14:03.619Z,13.00
2023-05-17T11:15:03.198Z,13.00
2023-05-17T11:16:03.541Z,13.00
2023-05-17T11:17:03.071Z,13.00
2023-05-17T11:18:02.887Z,13.00
2023-05-17T11:19:03.331Z,13.00
2023-05-17T11:20:03.345Z,13.00
2023-05-17T11:21:03.419Z,13.00
2023-05-17T11:22:03.042Z,13.00
2023-05-17T11:23:03.581Z,13.00
2023-05-17T11:24:03.201Z,13.00
2023-05-17T11:25:02.748Z,12.90
2023-05-17T11:26:13.019Z,12.90
2023-05-17T11:27:03.156Z,12.90
2023-05-17T11:28:02.659Z,12.90
2023-05-17T11:29:03.325Z,12.90
2023-05-17T11:30:02.805Z,12.80
2023-05-17T11:31:03.370Z,12.90
2023-05-17T11:32:03.024Z,12.90
2023-05-17T11:33:03.822Z,12.90
2023-05-17T11:34:03.298Z,12.90
2023-05-17T11:35:02.839Z,12.90
2023-05-17T11:36:03.434Z,12.90
2023-05-17T11:37:03.090Z,12.90
2023-05-17T11:38:03.600Z,12.90
2023-05-17T11:39:07.936Z,12.90
2023-05-17T11:40:03.510Z,12.90
2023-05-17T11:41:03.576Z,12.90
2023-05-17T11:42:02.756Z,12.90
2023-05-17T11:43:02.798Z,13.00
2023-05-17T11:44:03.245Z,13.00
2023-05-17T11:45:02.881Z,13.10
2023-05-17T11:46:03.405Z,13.20
2023-05-17T11:47:02.857Z,13.20
2023-05-17T11:48:03.416Z,13.30
2023-05-17T11:49:03.078Z,13.30
2023-05-17T11:50:03.531Z,13.40
2023-05-17T11:51:03.139Z,13.40
2023-05-17T11:52:02.697Z,13.50
2023-05-17T11:53:03.220Z,13.50
2023-05-17T11:54:03.675Z,13.60
2023-05-17T11:55:03.232Z,13.60
2023-05-17T11:56:02.889Z,13.60
2023-05-17T11:57:02.699Z,13.60
2023-05-17T11:58:02.806Z,13.60
2023-05-17T11:59:03.370Z,13.60
2023-05-17T12:00:02.813Z,13.60
2023-05-17T12:01:02.951Z,13.60
2023-05-17T12:02:03.538Z,13.60
2023-05-17T12:03:03.235Z,13.60
2023-05-17T12:04:03.113Z,13.60
2023-05-17T12:05:02.694Z,13.60
2023-05-17T12:06:03.144Z,13.50
2023-05-17T12:07:02.861Z,13.50
2023-05-17T12:08:03.444Z,13.50
2023-05-17T12:09:03.006Z,13.60
2023-05-17T12:10:03.585Z,13.60
2023-05-17T12:11:03.458Z,13.70
2023-05-17T12:12:03.129Z,13.70
2023-05-17T12:13:03.515Z,13.80
2023-05-17T12:14:03.153Z,13.80
2023-05-17T12:15:02.737Z,13.90
2023-05-17T12:16:02.724Z,13.90
2023-05-17T12:17:02.919Z,13.90
2023-05-17T12:18:03.496Z,13.90
2023-05-17T12:19:03.233Z,14.00
2023-05-17T12:20:03.051Z,13.90
2023-05-17T12:21:02.911Z,13.90
2023-05-17T12:22:03.515Z,13.90
2023-05-17T12:23:03.153Z,13.90
2023-05-17T12:24:02.853Z,13.90
2023-05-17T12:25:03.425Z,13.90
2023-05-17T12:26:03.148Z,13.90
2023-05-17T12:27:03.592Z,13.90
2023-05-17T12:28:03.191Z,13.90
2023-05-17T12:29:02.607Z,13.90
2023-05-17T12:30:03.305Z,13.80
2023-05-17T12:31:03.089Z,13.80
2023-05-17T12:32:02.752Z,13.80
2023-05-17T12:33:03.318Z,13.80
2023-05-17T12:34:03.263Z,13.80
2023-05-17T12:35:02.903Z,13.80
2023-05-17T12:36:02.891Z,13.70
2023-05-17T12:37:03.457Z,13.70
2023-05-17T12:38:03.000Z,13.70
2023-05-17T12:39:03.485Z,13.60
2023-05-17T12:40:02.955Z,13.60
2023-05-17T12:41:03.631Z,13.60
2023-05-17T12:42:03.217Z,13.60
2023-05-17T12:43:02.722Z,13.60
2023-05-17T12:44:14.324Z,13.60
2023-05-17T12:45:03.659Z,13.60
2023-05-17T12:46:03.825Z,13.70
2023-05-17T12:47:03.235Z,13.70
2023-05-17T12:48:03.591Z,13.80
2023-05-17T12:49:03.251Z,13.90
2023-05-17T12:50:03.068Z,14.00
2023-05-17T12:51:03.545Z,14.10
2023-05-17T12:52:03.254Z,14.10
2023-05-17T12:53:02.811Z,14.20
2023-05-17T12:54:03.429Z,14.20
2023-05-17T12:55:03.068Z,14.20
2023-05-17T12:56:03.567Z,14.30
2023-05-17T12:57:03.347Z,14.30
2023-05-17T12:58:02.950Z,14.30
2023-05-17T12:59:03.436Z,14.30
2023-05-17T13:00:03.085Z,14.30
2023-05-17T13:01:02.787Z,14.30
2023-05-17T13:02:03.449Z,14.30
2023-05-17T13:03:03.122Z,14.30
2023-05-17T13:04:03.209Z,14.30
2023-05-17T13:05:03.062Z,14.40
2023-05-17T13:06:03.098Z,14.40